Time;durP1;ratioP1;P1;durP2;ratioP2;P2;SDS_P1;SDS_P2;PMS_P1;PMS_P2;Temp;Humidity;BMP_temperature;BMP_pressure;BME280_temperature;BME280_humidity;BME280_pressure;Samples;Min_cycle;Max_cycle;Signal;HPM_P1;HPM_P2
2022/08/23 00:01:28;;;;;;;;;;;;;;;25.95;67.47;100687.03;5056171;28;1906;-39
2022/08/23 00:03:59;;;;;;;;;;;;;;;26.02;67.84;100690.00;5064167;28;1359;-39
2022/08/23 00:06:26;;;;;;;;;;;;;;;25.92;67.93;100686.47;5064111;28;1017;-39
2022/08/23 00:08:53;;;;;;;;;;;;;;;25.94;68.08;100696.00;5075013;28;1711;-39
2022/08/23 00:11:25;;;;;;;;;;;;;;;25.93;67.95;100688.97;5074783;28;1048;-38
2022/08/23 00:13:51;;;;;;;;;;;;;;;25.94;67.77;100684.50;5074748;28;1327;-37
2022/08/23 00:16:18;;;;;;;;;;;;;;;25.92;68.03;100683.78;5072833;28;1025;-39
2022/08/23 00:18:45;;;;;;;;;;;;;;;25.93;67.81;100682.81;5072600;28;1241;-38
2022/08/23 00:21:14;;;;;;;;;;;;;;;25.78;68.30;100681.47;5072611;28;1989;-38
2022/08/23 00:23:41;;;;;;;;;;;;;;;25.83;67.93;100679.25;5072691;28;1294;-38
2022/08/23 00:26:07;;;;;;;;;;;;;;;25.60;68.69;100677.72;5072724;28;1056;-38
2022/08/23 00:28:34;;;;;;;;;;;;;;;25.44;69.47;100681.69;5072051;28;1284;-38
2022/08/23 00:31:01;;;;;;;;;;;;;;;25.52;69.12;100673.94;5072405;28;1097;-38
2022/08/23 00:33:28;;;;;;;;;;;;;;;25.57;68.96;100681.50;5072638;28;1299;-38
2022/08/23 00:35:55;;;;;;;;;;;;;;;25.65;68.40;100672.88;5072451;28;1118;-38
2022/08/23 00:38:22;;;;;;;;;;;;;;;25.65;68.36;100670.19;5072424;28;1217;-38
2022/08/23 00:41:00;;;;;;;;;;;;;;;25.52;68.98;100668.59;5072476;28;1104;-38
2022/08/23 00:49:24;;;;;;;;;;;;;;;25.70;68.23;100670.63;5074192;28;1379;-39
2022/08/23 00:51:56;;;;;;;;;;;;;;;25.66;68.38;100663.88;5074045;28;1038;-39
2022/08/23 00:54:24;;;;;;;;;;;;;;;25.49;68.64;100673.34;5073054;28;1485;-39
2022/08/23 00:56:51;;;;;;;;;;;;;;;25.59;68.74;100662.72;5073326;28;914;-39
2022/08/23 00:59:18;;;;;;;;;;;;;;;25.53;68.60;100675.59;5073673;28;1283;-39
2022/08/23 01:01:44;;;;;;;;;;;;;;;25.40;69.18;100674.97;5073956;28;1922;-39
2022/08/23 01:04:11;;;;;;;;;;;;;;;25.37;69.33;100672.56;5073522;28;1212;-39
2022/08/23 01:06:43;;;;;;;;;;;;;;;25.41;69.20;100671.28;5073987;28;1143;-39
2022/08/23 01:09:15;;;;;;;;;;;;;;;25.40;69.29;100664.28;5073694;28;1401;-39
2022/08/23 01:11:49;;;;;;;;;;;;;;;25.52;68.58;100665.06;5073436;28;1101;-39
2022/08/23 01:14:18;;;;;;;;;;;;;;;25.45;68.68;100662.06;5073712;28;1296;-38
2022/08/23 01:16:48;;;;;;;;;;;;;;;25.43;68.69;100664.03;5073402;28;1798;-38
2022/08/23 01:19:41;;;;;;;;;;;;;;;25.36;69.35;100662.84;5073463;28;1280;-38
2022/08/23 01:22:08;;;;;;;;;;;;;;;25.47;68.97;100669.94;5072549;28;1917;-38
2022/08/23 01:24:35;;;;;;;;;;;;;;;25.51;68.53;100666.91;5073308;28;1208;-39
2022/08/23 01:27:21;;;;;;;;;;;;;;;25.60;68.13;100667.06;5073704;28;2225;-39
2022/08/23 01:29:48;;;;;;;;;;;;;;;25.42;68.54;100666.81;5073360;28;1026;-37
2022/08/23 01:32:15;;;;;;;;;;;;;;;25.39;68.73;100673.25;5073753;28;1260;-39
2022/08/23 01:34:42;;;;;;;;;;;;;;;25.39;68.92;100678.59;5073248;28;799;-38
2022/08/23 01:37:18;;;;;;;;;;;;;;;25.31;69.03;100670.41;5073385;28;1331;-39
2022/08/23 01:39:45;;;;;;;;;;;;;;;25.30;69.32;100670.53;5073295;28;1103;-39
2022/08/23 01:42:11;;;;;;;;;;;;;;;25.31;68.99;100669.56;5073393;28;1984;-38
2022/08/23 01:44:38;;;;;;;;;;;;;;;25.24;69.50;100669.22;5073082;28;1303;-39
2022/08/23 01:47:06;;;;;;;;;;;;;;;25.33;68.85;100679.13;5073379;28;1121;-38
2022/08/23 01:49:33;;;;;;;;;;;;;;;25.32;69.22;100672.06;5073145;28;1213;-39
2022/08/23 01:52:00;;;;;;;;;;;;;;;25.33;68.94;100671.13;5073315;28;1146;-39
2022/08/23 01:54:28;;;;;;;;;;;;;;;25.26;69.37;100679.78;5072855;28;1387;-39
2022/08/23 01:56:55;;;;;;;;;;;;;;;25.19;69.35;100674.13;5073237;28;1044;-38
2022/08/23 01:59:23;;;;;;;;;;;;;;;25.13;69.55;100685.31;5073019;28;1206;-38
2022/08/23 02:01:50;;;;;;;;;;;;;;;25.17;69.54;100676.06;5073188;28;1913;-39
2022/08/23 02:04:16;;;;;;;;;;;;;;;25.13;69.64;100681.78;5072989;28;1201;-38
2022/08/23 02:06:43;;;;;;;;;;;;;;;25.19;69.42;100684.78;5073100;28;1136;-38
2022/08/23 02:09:10;;;;;;;;;;;;;;;25.21;69.07;100672.16;5073029;28;1232;-38
2022/08/23 02:11:44;;;;;;;;;;;;;;;25.33;68.88;100678.25;5073362;28;1124;-38
2022/08/23 02:14:13;;;;;;;;;;;;;;;25.20;69.59;100678.47;5072974;28;1221;-39
2022/08/23 02:16:42;;;;;;;;;;;;;;;25.27;69.09;100684.97;5073203;28;1107;-39
2022/08/23 02:19:24;;;;;;;;;;;;;;;25.34;69.32;100685.28;5072971;28;1391;-39
2022/08/23 02:21:51;;;;;;;;;;;;;;;25.22;68.84;100691.69;5073189;28;1909;-39
2022/08/23 02:24:20;;;;;;;;;;;;;;;25.27;69.20;100684.97;5072774;28;1204;-39
2022/08/23 02:26:48;;;;;;;;;;;;;;;25.26;69.00;100685.13;5072964;28;1032;-39
2022/08/23 02:29:22;;;;;;;;;;;;;;;25.06;69.65;100684.13;5072793;28;1303;-38
2022/08/23 02:31:49;;;;;;;;;;;;;;;24.99;69.99;100680.28;5072973;28;1000;-38
2022/08/23 02:34:17;;;;;;;;;;;;;;;25.02;69.96;100680.88;5072777;28;1234;-38
2022/08/23 02:36:44;;;;;;;;;;;;;;;25.01;69.55;100678.34;5072941;28;1625;-38
2022/08/23 02:39:12;;;;;;;;;;;;;;;25.13;69.49;100677.31;5073109;28;1313;-38
2022/08/23 02:41:40;;;;;;;;;;;;;;;25.16;69.31;100679.72;5072828;28;1910;-38
2022/08/23 02:44:07;;;;;;;;;;;;;;;25.18;69.29;100683.09;5072713;28;1325;-38
2022/08/23 02:46:34;;;;;;;;;;;;;;;25.08;69.36;100682.16;5071461;28;1080;-38
2022/08/23 02:49:01;;;;;;;;;;;;;;;25.26;69.01;100680.59;5072572;28;1209;-38
2022/08/23 02:51:27;;;;;;;;;;;;;;;25.20;69.17;100677.63;5072646;28;1080;-38
2022/08/23 02:53:54;;;;;;;;;;;;;;;25.26;68.93;100677.13;5072394;28;1588;-38
2022/08/23 02:56:20;;;;;;;;;;;;;;;25.09;69.02;100683.88;5072573;28;1129;-38
2022/08/23 02:58:48;;;;;;;;;;;;;;;25.00;69.63;100676.66;5072483;28;1656;-38
2022/08/23 03:01:25;;;;;;;;;;;;;;;24.86;69.77;100674.31;5072588;28;1112;-39
2022/08/23 03:03:52;;;;;;;;;;;;;;;24.91;69.59;100678.28;5072415;28;1910;-38
2022/08/23 03:06:18;;;;;;;;;;;;;;;24.81;70.22;100676.50;5072208;28;1596;-39
2022/08/23 03:08:52;;;;;;;;;;;;;;;24.91;69.63;100680.94;5072399;28;1288;-40
2022/08/23 03:11:20;;;;;;;;;;;;;;;24.85;70.06;100689.44;5072527;28;1107;-38
2022/08/23 03:13:47;;;;;;;;;;;;;;;24.79;70.27;100681.06;5072655;28;1208;-38
2022/08/23 03:16:15;;;;;;;;;;;;;;;24.84;69.95;100677.09;5072533;28;1048;-38
2022/08/23 03:18:42;;;;;;;;;;;;;;;24.93;69.53;100680.78;5073093;28;1225;-38
2022/08/23 03:21:09;;;;;;;;;;;;;;;24.82;70.00;100689.69;5075960;28;1079;-38
2022/08/23 03:23:36;;;;;;;;;;;;;;;24.70;70.46;100673.84;5075624;28;1915;-38
2022/08/23 03:26:03;;;;;;;;;;;;;;;24.66;70.88;100683.06;5075507;28;1017;-38
2022/08/23 03:28:31;;;;;;;;;;;;;;;24.81;70.16;100676.50;5074005;28;1232;-39
2022/08/23 03:30:58;;;;;;;;;;;;;;;24.92;70.00;100687.97;5072572;28;1521;-38
2022/08/23 03:33:24;;;;;;;;;;;;;;;24.85;70.08;100686.78;5035027;28;1221;-38
2022/08/23 03:35:51;;;;;;;;;;;;;;;24.96;70.06;100683.19;5033531;28;1396;-38
2022/08/23 03:38:18;;;;;;;;;;;;;;;25.08;69.68;100682.16;5033574;28;1249;-39
2022/08/23 03:40:45;;;;;;;;;;;;;;;25.02;69.71;100686.19;5035549;28;1128;-38
2022/08/23 03:43:13;;;;;;;;;;;;;;;25.04;69.36;100674.56;5054012;28;1910;-37
2022/08/23 03:45:40;;;;;;;;;;;;;;;24.99;69.56;100691.78;5055491;28;1069;-38
2022/08/23 03:48:06;;;;;;;;;;;;;;;25.09;69.45;100683.88;5055322;28;1224;-38
2022/08/23 03:50:33;;;;;;;;;;;;;;;25.07;69.19;100682.31;5055237;28;1045;-38
2022/08/23 03:52:59;;;;;;;;;;;;;;;25.07;69.28;100685.81;5054491;28;1870;-39
2022/08/23 03:55:26;;;;;;;;;;;;;;;25.10;69.16;100682.91;5040542;28;1593;-39
2022/08/23 03:57:53;;;;;;;;;;;;;;;25.19;68.89;100687.44;5034972;28;1217;-39
2022/08/23 04:00:19;;;;;;;;;;;;;;;25.08;68.90;100690.16;5035219;28;1108;-39
2022/08/23 04:02:46;;;;;;;;;;;;;;;25.15;68.90;100691.34;5035192;28;1981;-39
2022/08/23 04:05:13;;;;;;;;;;;;;;;25.02;69.38;100685.34;5035141;28;1100;-39
2022/08/23 04:07:39;;;;;;;;;;;;;;;25.06;69.29;100683.28;5035129;28;1225;-39
2022/08/23 04:10:07;;;;;;;;;;;;;;;24.97;69.35;100680.41;5035164;28;1017;-38
2022/08/23 04:12:34;;;;;;;;;;;;;;;24.89;69.82;100685.56;5035010;28;1202;-39
2022/08/23 04:15:02;;;;;;;;;;;;;;;25.11;69.34;100684.56;5034928;28;1080;-40
2022/08/23 04:17:28;;;;;;;;;;;;;;;24.91;69.58;100677.41;5035280;28;1350;-39
2022/08/23 04:19:58;;;;;;;;;;;;;;;24.73;70.49;100678.91;5035021;28;1033;-39
2022/08/23 04:22:24;;;;;;;;;;;;;;;24.85;69.86;100686.78;5034348;28;1914;-39
2022/08/23 04:24:51;;;;;;;;;;;;;;;24.98;69.68;100689.25;5034713;28;1255;-39
2022/08/23 04:27:18;;;;;;;;;;;;;;;25.18;69.46;100691.09;5035103;28;1327;-39
2022/08/23 04:29:44;;;;;;;;;;;;;;;24.80;70.34;100685.44;5035114;28;768;-39
2022/08/23 04:32:11;;;;;;;;;;;;;;;24.85;69.93;100697.44;5035591;28;1150;-39
2022/08/23 04:34:41;;;;;;;;;;;;;;;24.91;70.00;100698.72;5035154;28;1343;-39
2022/08/23 04:37:11;;;;;;;;;;;;;;;24.85;70.03;100699.25;5035247;28;1052;-39
2022/08/23 04:42:23;;;;;;;;;;;;;;;24.84;69.62;100700.22;5035086;28;1981;-39
2022/08/23 04:44:50;;;;;;;;;;;;;;;24.81;69.79;100703.13;5035006;28;1021;-39
2022/08/23 04:47:16;;;;;;;;;;;;;;;24.78;69.75;100701.53;5035305;28;1355;-39
2022/08/23 04:49:43;;;;;;;;;;;;;;;24.79;69.48;100699.72;5034839;28;1055;-40
2022/08/23 04:52:10;;;;;;;;;;;;;;;24.81;69.33;100700.47;5034600;28;1081;-39
2022/08/23 04:54:39;;;;;;;;;;;;;;;24.77;69.09;100705.19;5034455;28;1610;-39
2022/08/23 04:57:06;;;;;;;;;;;;;;;24.71;69.38;100713.69;5035021;28;1120;-38
2022/08/23 04:59:32;;;;;;;;;;;;;;;24.81;69.12;100725.28;5034605;28;1295;-37
2022/08/23 05:01:59;;;;;;;;;;;;;;;24.74;69.49;100713.44;5034988;28;1036;-37
2022/08/23 05:04:25;;;;;;;;;;;;;;;24.74;69.62;100713.44;5034430;28;1918;-38
2022/08/23 05:06:52;;;;;;;;;;;;;;;24.70;69.30;100713.81;5034668;28;1049;-37
2022/08/23 05:09:18;;;;;;;;;;;;;;;24.75;69.39;100720.44;5034880;28;1237;-39
2022/08/23 05:11:46;;;;;;;;;;;;;;;24.88;68.81;100721.16;5034506;28;1265;-39
2022/08/23 05:14:12;;;;;;;;;;;;;;;24.95;68.41;100718.84;5034184;28;1319;-38
2022/08/23 05:16:39;;;;;;;;;;;;;;;25.02;68.16;100719.19;5034333;28;1123;-38
2022/08/23 05:19:06;;;;;;;;;;;;;;;25.08;68.03;100726.66;5034273;28;1213;-39
2022/08/23 05:21:32;;;;;;;;;;;;;;;25.06;68.11;100721.44;5034405;28;1105;-39
2022/08/23 05:23:59;;;;;;;;;;;;;;;25.21;68.03;100717.47;5034150;28;1914;-39
2022/08/23 05:26:29;;;;;;;;;;;;;;;25.23;67.42;100723.50;5034520;28;1096;-38
2022/08/23 05:28:55;;;;;;;;;;;;;;;25.21;67.69;100728.16;5034103;28;1276;-38
2022/08/23 05:31:23;;;;;;;;;;;;;;;25.27;67.08;100722.28;5034046;28;1068;-39
2022/08/23 05:33:50;;;;;;;;;;;;;;;25.29;66.63;100716.84;5034045;28;1209;-39
2022/08/23 05:36:17;;;;;;;;;;;;;;;25.31;66.87;100718.41;5033931;28;1258;-39
2022/08/23 05:38:45;;;;;;;;;;;;;;;25.37;66.34;100717.88;5033874;28;1304;-39
2022/08/23 05:41:13;;;;;;;;;;;;;;;25.24;66.73;100727.88;5033541;28;1104;-39
2022/08/23 05:43:40;;;;;;;;;;;;;;;25.33;66.80;100732.44;5033535;28;1974;-39
2022/08/23 05:46:08;;;;;;;;;;;;;;;25.33;66.15;100721.78;5043602;28;941;-40
2022/08/23 05:48:39;;;;;;;;;;;;;;;25.35;66.41;100725.13;5058092;28;1292;-39
2022/08/23 05:51:15;;;;;;;;;;;;;;;25.58;66.19;100722.38;5073763;28;1084;-38
2022/08/23 05:53:42;;;;;;;;;;;;;;;25.66;66.06;100733.22;5033487;28;1370;-39
2022/08/23 05:56:12;;;;;;;;;;;;;;;25.51;65.64;100728.22;5033939;28;1041;-37
2022/08/23 05:58:38;;;;;;;;;;;;;;;25.50;64.32;100729.19;5032270;28;1392;-40
2022/08/23 06:01:05;;;;;;;;;;;;;;;25.44;64.88;100731.53;5033915;28;1012;-40
2022/08/23 06:03:32;;;;;;;;;;;;;;;25.43;65.09;100738.69;5033488;28;1918;-40
2022/08/23 06:05:59;;;;;;;;;;;;;;;25.52;64.93;100732.59;5033602;28;1123;-40
2022/08/23 06:08:27;;;;;;;;;;;;;;;25.53;64.08;100734.28;5033530;28;1227;-38
2022/08/23 06:10:59;;;;;;;;;;;;;;;25.60;64.15;100741.75;5033583;28;1140;-38
2022/08/23 06:13:26;;;;;;;;;;;;;;;25.54;63.84;100741.31;5033449;28;1300;-39
2022/08/23 06:15:53;;;;;;;;;;;;;;;25.38;65.24;100740.88;5033646;28;1112;-39
2022/08/23 06:18:19;;;;;;;;;;;;;;;25.52;64.68;100745.94;5033446;28;1303;-39
2022/08/23 06:20:46;;;;;;;;;;;;;;;25.61;65.13;100746.97;5032126;28;1040;-39
2022/08/23 06:23:13;;;;;;;;;;;;;;;25.54;64.89;100746.63;5033316;28;1918;-39
2022/08/23 06:25:39;;;;;;;;;;;;;;;25.71;65.16;100741.69;5033106;28;1131;-39
2022/08/23 06:28:06;;;;;;;;;;;;;;;25.70;65.02;100742.66;5033421;28;1307;-39
2022/08/23 06:30:37;;;;;;;;;;;;;;;25.70;64.87;100748.00;5048099;28;1552;-39
2022/08/23 06:33:05;;;;;;;;;;;;;;;25.62;64.87;100758.50;5068181;28;1284;-39
2022/08/23 06:35:31;;;;;;;;;;;;;;;25.65;65.17;100751.06;5073086;28;1019;-39
2022/08/23 06:38:05;;;;;;;;;;;;;;;25.53;64.26;100760.13;5073362;28;1292;-39
2022/08/23 06:40:34;;;;;;;;;;;;;;;25.45;63.34;100755.41;5073285;28;1068;-42
2022/08/23 06:43:00;;;;;;;;;;;;;;;25.49;61.10;100764.88;5071902;28;1914;-42
2022/08/23 06:45:27;;;;;;;;;;;;;;;25.49;61.26;100756.88;5066872;28;1559;-40
2022/08/23 06:48:00;;;;;;;;;;;;;;;25.63;60.68;100765.50;5057188;28;1344;-39
2022/08/23 06:50:27;;;;;;;;;;;;;;;25.68;59.76;100753.47;5051399;28;1048;-39
2022/08/23 06:52:57;;;;;;;;;;;;;;;25.71;59.99;100760.38;5051222;28;1312;-40
2022/08/23 06:55:24;;;;;;;;;;;;;;;25.69;59.33;100760.47;5056353;28;1468;-39
2022/08/23 06:57:51;;;;;;;;;;;;;;;25.76;59.41;100767.00;5056202;28;1217;-39
2022/08/23 07:00:17;;;;;;;;;;;;;;;25.62;59.14;100762.00;5056540;28;1132;-41
2022/08/23 07:02:47;;;;;;;;;;;;;;;25.67;59.07;100766.94;5056516;28;1905;-42
2022/08/23 07:05:15;;;;;;;;;;;;;;;25.59;59.27;100764.09;5056554;28;1112;-42
2022/08/23 07:07:42;;;;;;;;;;;;;;;25.54;59.44;100765.31;5056003;28;1225;-45
2022/08/23 07:10:10;;;;;;;;;;;;;;;25.57;60.29;100766.00;5056472;28;917;-43
2022/08/23 07:12:37;;;;;;;;;;;;;;;25.64;59.65;100768.03;5076279;28;1275;-42
2022/08/23 07:15:04;;;;;;;;;;;;;;;25.62;59.99;100767.34;5075648;28;1711;-43
2022/08/23 07:17:30;;;;;;;;;;;;;;;25.64;60.19;100764.53;5074947;28;1256;-43
2022/08/23 07:19:57;;;;;;;;;;;;;;;25.69;60.17;100754.28;5075246;28;1029;-42
2022/08/23 07:22:24;;;;;;;;;;;;;;;25.74;60.11;100760.09;5076293;28;1314;-41
2022/08/23 07:24:50;;;;;;;;;;;;;;;25.78;59.62;100765.03;5073733;28;1913;-44
2022/08/23 07:27:17;;;;;;;;;;;;;;;25.69;59.23;100764.97;5054114;28;1288;-42
2022/08/23 07:29:43;;;;;;;;;;;;;;;25.59;58.95;100767.59;5055958;28;1099;-41
2022/08/23 07:32:10;;;;;;;;;;;;;;;25.69;59.01;100771.16;5056284;28;1076;-46
2022/08/23 07:34:37;;;;;;;;;;;;;;;25.80;59.04;100764.91;5055725;28;1209;-47
2022/08/23 07:37:04;;;;;;;;;;;;;;;25.78;59.00;100759.69;5054511;28;1091;-43
2022/08/23 07:39:41;;;;;;;;;;;;;;;25.78;58.58;100761.50;5056011;28;1332;-42
2022/08/23 07:42:07;;;;;;;;;;;;;;;25.78;57.98;100766.84;5055880;28;1108;-42
2022/08/23 07:44:49;;;;;;;;;;;;;;;25.84;58.12;100764.50;5055753;28;1980;-44
2022/08/23 07:47:18;;;;;;;;;;;;;;;25.97;59.23;100759.78;5055636;28;1280;-45
2022/08/23 07:49:45;;;;;;;;;;;;;;;25.99;58.63;100762.34;5054822;28;1117;-43
2022/08/23 07:52:12;;;;;;;;;;;;;;;25.98;58.03;100761.50;5055855;28;1111;-41
2022/08/23 07:54:39;;;;;;;;;;;;;;;26.02;56.83;100764.75;5055641;28;1597;-42
2022/08/23 07:57:08;;;;;;;;;;;;;;;26.06;58.34;100771.50;5055538;28;1029;-44
2022/08/23 07:59:35;;;;;;;;;;;;;;;26.11;59.95;100765.75;5054742;28;1234;-45
2022/08/23 08:02:02;;;;;;;;;;;;;;;26.08;57.15;100774.88;5054023;28;1177;-43
2022/08/23 08:04:28;;;;;;;;;;;;;;;26.09;59.36;100768.56;5054881;28;1910;-48
2022/08/23 08:06:57;;;;;;;;;;;;;;;26.15;60.19;100776.06;5055269;28;1130;-45
2022/08/23 08:09:44;;;;;;;;;;;;;;;26.26;59.91;100777.78;5054934;28;2253;-43
2022/08/23 08:12:10;;;;;;;;;;;;;;;26.39;60.28;100775.72;5055733;28;1153;-47
2022/08/23 08:14:37;;;;;;;;;;;;;;;26.28;58.90;100779.34;5055200;28;1197;-44
2022/08/23 08:17:04;;;;;;;;;;;;;;;26.34;60.36;100777.97;5054987;28;1235;-48
2022/08/23 08:19:31;;;;;;;;;;;;;;;26.35;60.32;100785.00;5054920;28;1208;-41
2022/08/23 08:21:57;;;;;;;;;;;;;;;26.44;60.43;100784.19;5055131;28;1053;-48
2022/08/23 08:24:24;;;;;;;;;;;;;;;26.42;60.50;100788.78;5042299;28;1983;-41
2022/08/23 08:26:51;;;;;;;;;;;;;;;26.46;60.18;100788.41;5046104;28;1141;-44
2022/08/23 08:29:17;;;;;;;;;;;;;;;26.53;60.02;100789.56;5052131;28;1268;-42
2022/08/23 08:31:46;;;;;;;;;;;;;;;26.51;60.13;100778.16;5045063;28;1509;-43
2022/08/23 08:34:19;;;;;;;;;;;;;;;26.56;59.71;100781.28;5040615;28;1391;-43
2022/08/23 08:36:53;;;;;;;;;;;;;;;26.57;58.29;100784.75;5043327;28;1512;-43
2022/08/23 08:39:22;;;;;;;;;;;;;;;26.55;58.29;100782.25;5045541;28;1388;-45
2022/08/23 08:41:55;;;;;;;;;;;;;;;26.61;57.94;100783.50;5053003;28;949;-45
2022/08/23 08:44:39;;;;;;;;;;;;;;;26.50;58.98;100789.84;5054031;28;1992;-46
2022/08/23 08:47:09;;;;;;;;;;;;;;;26.53;58.32;100794.06;5052440;28;1069;-46
2022/08/23 08:49:39;;;;;;;;;;;;;;;26.44;58.09;100790.38;5050816;28;1232;-39
2022/08/23 08:52:19;;;;;;;;;;;;;;;26.54;58.79;100793.91;5053467;28;1073;-43
2022/08/23 08:54:48;;;;;;;;;;;;;;;26.63;59.04;100802.91;5053271;28;1463;-47
2022/08/23 08:57:20;;;;;;;;;;;;;;;26.63;58.58;100806.44;5052957;28;1341;-45
2022/08/23 08:59:52;;;;;;;;;;;;;;;26.70;58.88;100800.53;5058305;28;1647;-45
2022/08/23 09:02:20;;;;;;;;;;;;;;;26.78;58.41;100809.56;5052636;28;1306;-47
2022/08/23 09:05:03;;;;;;;;;;;;;;;26.83;59.20;100806.53;5046658;28;1918;-49
2022/08/23 09:07:36;;;;;;;;;;;;;;;26.87;60.03;100805.28;5065755;28;1315;-46
2022/08/23 09:10:24;;;;;;;;;;;;;;;26.83;60.38;100810.03;5057912;28;1243;-40
2022/08/23 09:12:56;;;;;;;;;;;;;;;26.82;60.78;100807.50;5052628;28;1288;-44
2022/08/23 09:15:31;;;;;;;;;;;;;;;26.87;60.19;100802.59;5052565;28;1196;-41
2022/08/23 09:18:16;;;;;;;;;;;;;;;26.89;60.55;100800.63;5070940;28;1436;-40
2022/08/23 09:20:44;;;;;;;;;;;;;;;26.87;61.06;100806.09;5052401;28;1093;-40
2022/08/23 09:23:16;;;;;;;;;;;;;;;26.90;61.62;100800.47;5052574;28;1248;-45
2022/08/23 09:25:56;;;;;;;;;;;;;;;26.93;61.94;100794.03;5051398;28;1967;-46
2022/08/23 09:28:30;;;;;;;;;;;;;;;26.90;61.12;100796.97;5052217;28;1389;-48
2022/08/23 09:30:57;;;;;;;;;;;;;;;26.90;61.75;100803.13;5051108;28;1086;-42
2022/08/23 09:33:26;;;;;;;;;;;;;;;26.94;61.97;100803.72;5052302;28;1323;-46
2022/08/23 09:36:04;;;;;;;;;;;;;;;26.96;60.96;100797.25;5053067;28;1171;-50
2022/08/23 09:38:31;;;;;;;;;;;;;;;27.04;61.05;100800.06;5068693;28;1659;-51
2022/08/23 09:40:58;;;;;;;;;;;;;;;27.09;60.45;100799.66;5069425;28;1087;-47
2022/08/23 09:43:26;;;;;;;;;;;;;;;27.11;59.42;100800.38;5069935;28;1225;-53
2022/08/23 09:45:53;;;;;;;;;;;;;;;27.11;58.97;100800.38;5068542;28;1246;-52
2022/08/23 09:48:34;;;;;;;;;;;;;;;27.12;58.66;100789.53;5070533;28;1333;-54
2022/08/23 09:51:04;;;;;;;;;;;;;;;27.19;57.91;100797.81;5071134;28;1033;-47
2022/08/23 09:53:31;;;;;;;;;;;;;;;27.24;57.38;100792.88;5071220;28;1221;-50
2022/08/23 09:56:08;;;;;;;;;;;;;;;27.18;57.80;100792.63;5073177;28;1579;-47
2022/08/23 09:58:36;;;;;;;;;;;;;;;27.23;57.91;100791.22;5073045;28;1354;-51
2022/08/23 10:01:23;;;;;;;;;;;;;;;27.27;58.05;100792.59;5071309;28;1119;-47
2022/08/23 10:04:09;;;;;;;;;;;;;;;27.29;57.99;100790.66;5070538;28;1992;-49
2022/08/23 10:06:36;;;;;;;;;;;;;;;27.33;57.58;100788.53;5071368;28;1124;-48
2022/08/23 10:09:04;;;;;;;;;;;;;;;27.34;58.33;100779.53;5070907;28;1192;-46
2022/08/23 10:11:35;;;;;;;;;;;;;;;27.29;58.20;100776.44;5070864;28;1108;-47
2022/08/23 10:14:01;;;;;;;;;;;;;;;27.39;57.88;100783.44;5071620;28;1426;-52
2022/08/23 10:16:28;;;;;;;;;;;;;;;27.32;57.14;100782.34;5073051;28;1015;-46
2022/08/23 10:18:55;;;;;;;;;;;;;;;27.41;57.24;100778.81;5072330;28;1205;-45
2022/08/23 10:21:26;;;;;;;;;;;;;;;27.47;58.20;100780.09;5072250;28;1109;-47
2022/08/23 10:24:13;;;;;;;;;;;;;;;27.48;57.80;100769.25;5072216;28;1906;-45
2022/08/23 10:26:56;;;;;;;;;;;;;;;27.50;58.74;100769.97;5072330;28;1129;-51
2022/08/23 10:29:52;;;;;;;;;;;;;;;27.62;58.72;100771.50;5076111;28;1296;-45
2022/08/23 10:32:33;;;;;;;;;;;;;;;27.75;58.12;100765.84;5066853;28;1196;-48
2022/08/23 10:35:23;;;;;;;;;;;;;;;27.68;58.24;100767.41;5073097;28;1583;-50
2022/08/23 10:37:57;;;;;;;;;;;;;;;27.85;57.70;100765.78;5057128;28;1233;-52
2022/08/23 10:40:27;;;;;;;;;;;;;;;28.02;57.12;100765.03;5069881;28;1098;-47
2022/08/23 10:43:12;;;;;;;;;;;;;;;27.95;56.74;100758.56;5056148;28;1316;-51
2022/08/23 10:45:40;;;;;;;;;;;;;;;28.05;56.33;100767.47;5069726;28;1982;-45
2022/08/23 10:48:14;;;;;;;;;;;;;;;28.09;56.91;100760.78;5076040;28;1169;-47
2022/08/23 10:51:09;;;;;;;;;;;;;;;28.10;56.69;100757.13;5074804;28;1131;-50
2022/08/23 10:53:45;;;;;;;;;;;;;;;28.14;56.76;100747.81;5070787;28;1440;-52
2022/08/23 10:56:17;;;;;;;;;;;;;;;28.19;56.92;100751.75;5076096;28;1045;-52
2022/08/23 10:58:53;;;;;;;;;;;;;;;28.14;57.10;100743.31;5076266;28;1384;-48
2022/08/23 11:01:35;;;;;;;;;;;;;;;28.17;57.41;100744.84;5076291;28;1048;-49
2022/08/23 11:04:14;;;;;;;;;;;;;;;28.25;57.23;100739.59;5075570;28;1910;-50
2022/08/23 11:06:44;;;;;;;;;;;;;;;28.21;57.61;100740.88;5076122;28;1059;-51
2022/08/23 11:09:17;;;;;;;;;;;;;;;28.24;56.16;100743.25;5075675;28;1200;-52
2022/08/23 11:12:03;;;;;;;;;;;;;;;28.23;56.28;100741.56;5075474;28;1596;-48
2022/08/23 11:14:46;;;;;;;;;;;;;;;28.26;56.19;100735.94;5050479;28;1742;-52
2022/08/23 11:17:33;;;;;;;;;;;;;;;28.27;55.69;100732.22;5052199;28;982;-48
2022/08/23 11:20:03;;;;;;;;;;;;;;;28.65;53.81;100731.19;5067188;28;1604;-53
2022/08/23 11:22:31;;;;;;;;;;;;;;;28.72;54.02;100722.41;5055630;28;1836;-48
2022/08/23 11:25:00;;;;;;;;;;;;;;;28.63;54.06;100723.28;5050649;28;1918;-50
2022/08/23 11:27:38;;;;;;;;;;;;;;;28.85;53.67;100730.03;5054558;28;1375;-49
2022/08/23 11:30:23;;;;;;;;;;;;;;;28.73;53.31;100724.06;5053226;28;1070;-49
2022/08/23 11:32:50;;;;;;;;;;;;;;;28.68;53.87;100731.75;5058253;28;1390;-50
2022/08/23 11:35:31;;;;;;;;;;;;;;;28.86;54.06;100718.34;5058025;28;1332;-48
2022/08/23 11:38:07;;;;;;;;;;;;;;;28.94;53.60;100723.75;5064185;28;1363;-51
2022/08/23 11:40:55;;;;;;;;;;;;;;;28.84;53.57;100716.81;5052341;28;1391;-47
2022/08/23 11:43:25;;;;;;;;;;;;;;;28.50;54.20;100716.59;5054262;28;1240;-50
2022/08/23 11:45:53;;;;;;;;;;;;;;;28.50;55.00;100717.44;5050938;28;1977;-50
2022/08/23 11:48:37;;;;;;;;;;;;;;;28.58;55.48;100720.19;5054355;28;1339;-53
2022/08/23 11:51:28;;;;;;;;;;;;;;;28.52;55.52;100709.25;5053824;28;1153;-46
2022/08/23 11:53:58;;;;;;;;;;;;;;;28.53;55.86;100719.81;5053944;28;1221;-54
2022/08/23 11:56:25;;;;;;;;;;;;;;;28.86;55.15;100712.13;5053796;28;991;-49
2022/08/23 11:59:07;;;;;;;;;;;;;;;29.00;55.18;100722.31;5054756;28;1236;-48
2022/08/23 12:01:37;;;;;;;;;;;;;;;28.90;55.96;100713.50;5054224;28;1096;-48
2022/08/23 12:04:13;;;;;;;;;;;;;;;28.97;56.08;100711.91;5053776;28;1902;-44
2022/08/23 12:06:42;;;;;;;;;;;;;;;29.09;55.66;100708.00;5055492;28;1148;-55
2022/08/23 12:09:20;;;;;;;;;;;;;;;29.15;55.74;100712.72;5053836;28;1370;-50
2022/08/23 12:11:56;;;;;;;;;;;;;;;29.03;56.21;100717.47;5065246;28;1473;-47
2022/08/23 12:14:35;;;;;;;;;;;;;;;28.98;56.23;100711.75;5052264;28;1304;-50
2022/08/23 12:17:13;;;;;;;;;;;;;;;29.14;56.42;100711.03;5051088;28;1063;-51
2022/08/23 12:19:42;;;;;;;;;;;;;;;29.19;56.00;100708.72;5058891;28;1672;-47
2022/08/23 12:22:12;;;;;;;;;;;;;;;29.09;56.93;100716.03;5056539;28;1063;-53
2022/08/23 12:24:41;;;;;;;;;;;;;;;29.20;56.64;100710.41;5052362;28;1906;-48
2022/08/23 12:27:27;;;;;;;;;;;;;;;29.33;56.12;100710.03;5052565;28;1072;-54
2022/08/23 12:30:15;;;;;;;;;;;;;;;29.18;55.92;100715.09;5053492;28;1051;-54
2022/08/23 12:32:45;;;;;;;;;;;;;;;29.04;56.34;100716.47;5051602;28;1572;-55
2022/08/23 12:35:29;;;;;;;;;;;;;;;29.14;56.59;100703.84;5043945;28;1092;-49
2022/08/23 12:38:05;;;;;;;;;;;;;;;29.31;56.57;100710.19;5052035;28;1236;-50
2022/08/23 12:40:40;;;;;;;;;;;;;;;29.34;56.48;100709.03;5052012;28;946;-52
2022/08/23 12:43:17;;;;;;;;;;;;;;;29.28;57.73;100702.44;5052570;28;1387;-52
2022/08/23 12:45:53;;;;;;;;;;;;;;;29.05;57.29;100702.09;5053291;28;1913;-53
2022/08/23 12:48:22;;;;;;;;;;;;;;;28.96;57.41;100696.81;5052943;28;1268;-48
2022/08/23 12:50:54;;;;;;;;;;;;;;;29.27;56.04;100698.09;5052034;28;1100;-51
2022/08/23 12:53:41;;;;;;;;;;;;;;;29.18;55.97;100690.97;5062411;28;1579;-54
2022/08/23 12:56:17;;;;;;;;;;;;;;;29.09;55.59;100691.91;5071723;28;1109;-52
2022/08/23 12:58:50;;;;;;;;;;;;;;;29.16;56.09;100692.94;5065158;28;1480;-50
2022/08/23 13:01:23;;;;;;;;;;;;;;;29.06;55.67;100684.97;5053575;28;1091;-46
2022/08/23 13:04:15;;;;;;;;;;;;;;;29.12;54.83;100686.22;5052038;28;1264;-50
2022/08/23 13:06:47;;;;;;;;;;;;;;;29.12;55.06;100684.34;5051871;28;1118;-49
2022/08/23 13:09:21;;;;;;;;;;;;;;;29.03;54.62;100681.78;5055313;28;1356;-50
2022/08/23 13:11:48;;;;;;;;;;;;;;;29.09;55.31;100673.13;5057721;28;1259;-53
2022/08/23 13:14:31;;;;;;;;;;;;;;;29.10;54.57;100666.75;5053828;28;1193;-48